sensor_id;sensor_type;location;lat;lon;timestamp;P1;durP1;ratioP1;P2;durP2;ratioP2
50968;SDS011;36982;51.474;7.228;2023-12-20T00:01:36;11.90;;;7.93;;
50968;SDS011;36982;51.474;7.228;2023-12-20T00:04:02;14.27;;;8.13;;
50968;SDS011;36982;51.474;7.228;2023-12-20T00:06:28;11.97;;;7.20;;
50968;SDS011;36982;51.474;7.228;2023-12-20T00:08:55;12.27;;;8.50;;
50968;SDS011;36982;51.474;7.228;2023-12-20T00:11:20;12.93;;;8.27;;
50968;SDS011;36982;51.474;7.228;2023-12-20T00:13:46;16.33;;;9.30;;
50968;SDS011;36982;51.474;7.228;2023-12-20T00:16:11;17.47;;;9.33;;
50968;SDS011;36982;51.474;7.228;2023-12-20T00:18:37;17.13;;;9.63;;
50968;SDS011;36982;51.474;7.228;2023-12-20T00:21:03;17.17;;;10.67;;
50968;SDS011;36982;51.474;7.228;2023-12-20T00:23:29;19.13;;;10.07;;
50968;SDS011;36982;51.474;7.228;2023-12-20T00:25:54;16.40;;;9.80;;
50968;SDS011;36982;51.474;7.228;2023-12-20T00:28:20;15.60;;;9.77;;
50968;SDS011;36982;51.474;7.228;2023-12-20T00:30:45;17.20;;;9.90;;
50968;SDS011;36982;51.474;7.228;2023-12-20T00:33:11;15.83;;;8.97;;
50968;SDS011;36982;51.474;7.228;2023-12-20T00:35:36;17.70;;;9.57;;
50968;SDS011;36982;51.474;7.228;2023-12-20T00:38:02;15.97;;;9.50;;
50968;SDS011;36982;51.474;7.228;2023-12-20T00:40:30;14.63;;;8.63;;
50968;SDS011;36982;51.474;7.228;2023-12-20T00:42:55;14.93;;;8.57;;
50968;SDS011;36982;51.474;7.228;2023-12-20T00:45:21;18.17;;;9.20;;
50968;SDS011;36982;51.474;7.228;2023-12-20T00:47:46;14.43;;;8.53;;
50968;SDS011;36982;51.474;7.228;2023-12-20T00:50:12;13.83;;;8.43;;
50968;SDS011;36982;51.474;7.228;2023-12-20T00:52:37;15.17;;;7.90;;
50968;SDS011;36982;51.474;7.228;2023-12-20T00:55:03;11.03;;;7.20;;
50968;SDS011;36982;51.474;7.228;2023-12-20T00:57:29;14.17;;;6.60;;
50968;SDS011;36982;51.474;7.228;2023-12-20T00:59:56;12.17;;;7.17;;
50968;SDS011;36982;51.474;7.228;2023-12-20T01:02:21;13.03;;;6.47;;
50968;SDS011;36982;51.474;7.228;2023-12-20T01:04:47;10.17;;;5.67;;
50968;SDS011;36982;51.474;7.228;2023-12-20T01:07:12;13.70;;;5.70;;
50968;SDS011;36982;51.474;7.228;2023-12-20T01:09:38;10.83;;;5.67;;
50968;SDS011;36982;51.474;7.228;2023-12-20T01:12:04;11.00;;;5.30;;
50968;SDS011;36982;51.474;7.228;2023-12-20T01:14:29;10.97;;;4.67;;
50968;SDS011;36982;51.474;7.228;2023-12-20T01:16:55;8.97;;;4.87;;
50968;SDS011;36982;51.474;7.228;2023-12-20T01:19:21;10.77;;;5.40;;
50968;SDS011;36982;51.474;7.228;2023-12-20T01:21:46;11.27;;;4.77;;
50968;SDS011;36982;51.474;7.228;2023-12-20T01:24:12;12.10;;;5.17;;
50968;SDS011;36982;51.474;7.228;2023-12-20T01:26:37;10.40;;;5.23;;
50968;SDS011;36982;51.474;7.228;2023-12-20T01:29:03;15.37;;;5.33;;
50968;SDS011;36982;51.474;7.228;2023-12-20T01:31:28;9.43;;;5.57;;
50968;SDS011;36982;51.474;7.228;2023-12-20T01:33:54;12.43;;;5.30;;
50968;SDS011;36982;51.474;7.228;2023-12-20T01:36:20;9.27;;;4.77;;
50968;SDS011;36982;51.474;7.228;2023-12-20T01:38:45;10.90;;;5.40;;
50968;SDS011;36982;51.474;7.228;2023-12-20T01:41:11;8.43;;;4.97;;
50968;SDS011;36982;51.474;7.228;2023-12-20T01:43:36;10.80;;;4.90;;
50968;SDS011;36982;51.474;7.228;2023-12-20T01:46:02;7.47;;;4.60;;
50968;SDS011;36982;51.474;7.228;2023-12-20T01:48:28;9.27;;;4.60;;
50968;SDS011;36982;51.474;7.228;2023-12-20T01:50:57;10.10;;;4.90;;
50968;SDS011;36982;51.474;7.228;2023-12-20T01:53:23;7.87;;;3.90;;
50968;SDS011;36982;51.474;7.228;2023-12-20T01:55:52;8.17;;;3.83;;
50968;SDS011;36982;51.474;7.228;2023-12-20T01:58:19;8.10;;;4.33;;
50968;SDS011;36982;51.474;7.228;2023-12-20T02:00:45;8.07;;;3.90;;
50968;SDS011;36982;51.474;7.228;2023-12-20T02:03:11;8.60;;;4.00;;
50968;SDS011;36982;51.474;7.228;2023-12-20T02:05:37;7.83;;;3.70;;
50968;SDS011;36982;51.474;7.228;2023-12-20T02:08:03;8.93;;;4.07;;
50968;SDS011;36982;51.474;7.228;2023-12-20T02:10:30;7.70;;;2.97;;
50968;SDS011;36982;51.474;7.228;2023-12-20T02:12:56;7.10;;;3.60;;
50968;SDS011;36982;51.474;7.228;2023-12-20T02:15:22;10.33;;;4.00;;
50968;SDS011;36982;51.474;7.228;2023-12-20T02:17:48;7.93;;;3.23;;
50968;SDS011;36982;51.474;7.228;2023-12-20T02:20:14;8.83;;;3.27;;
50968;SDS011;36982;51.474;7.228;2023-12-20T02:22:40;10.70;;;3.20;;
50968;SDS011;36982;51.474;7.228;2023-12-20T02:25:05;8.53;;;3.37;;
50968;SDS011;36982;51.474;7.228;2023-12-20T02:27:31;8.67;;;3.47;;
50968;SDS011;36982;51.474;7.228;2023-12-20T02:29:57;9.30;;;3.83;;
50968;SDS011;36982;51.474;7.228;2023-12-20T02:32:23;11.00;;;3.80;;
50968;SDS011;36982;51.474;7.228;2023-12-20T02:34:53;11.80;;;4.23;;
50968;SDS011;36982;51.474;7.228;2023-12-20T02:37:19;8.63;;;4.20;;
50968;SDS011;36982;51.474;7.228;2023-12-20T02:39:45;9.50;;;4.00;;
50968;SDS011;36982;51.474;7.228;2023-12-20T02:42:10;10.63;;;4.63;;
50968;SDS011;36982;51.474;7.228;2023-12-20T02:44:36;8.73;;;4.97;;
50968;SDS011;36982;51.474;7.228;2023-12-20T02:47:02;9.83;;;4.20;;
50968;SDS011;36982;51.474;7.228;2023-12-20T02:49:28;9.70;;;5.20;;
50968;SDS011;36982;51.474;7.228;2023-12-20T02:51:53;10.83;;;4.83;;
50968;SDS011;36982;51.474;7.228;2023-12-20T02:54:19;10.33;;;3.97;;
50968;SDS011;36982;51.474;7.228;2023-12-20T02:56:44;9.80;;;4.73;;
50968;SDS011;36982;51.474;7.228;2023-12-20T02:59:10;11.03;;;5.33;;
50968;SDS011;36982;51.474;7.228;2023-12-20T03:01:36;8.80;;;5.30;;
50968;SDS011;36982;51.474;7.228;2023-12-20T03:04:07;11.13;;;4.63;;
50968;SDS011;36982;51.474;7.228;2023-12-20T03:06:33;8.10;;;4.30;;
50968;SDS011;36982;51.474;7.228;2023-12-20T03:08:58;13.30;;;4.80;;
50968;SDS011;36982;51.474;7.228;2023-12-20T03:11:27;11.93;;;4.27;;
50968;SDS011;36982;51.474;7.228;2023-12-20T03:13:53;10.90;;;4.50;;
50968;SDS011;36982;51.474;7.228;2023-12-20T03:16:19;16.03;;;5.00;;
50968;SDS011;36982;51.474;7.228;2023-12-20T03:18:45;11.97;;;4.60;;
50968;SDS011;36982;51.474;7.228;2023-12-20T03:21:11;12.73;;;4.80;;
50968;SDS011;36982;51.474;7.228;2023-12-20T03:23:36;9.57;;;4.63;;
50968;SDS011;36982;51.474;7.228;2023-12-20T03:26:02;10.97;;;5.13;;
50968;SDS011;36982;51.474;7.228;2023-12-20T03:28:28;10.73;;;4.67;;
50968;SDS011;36982;51.474;7.228;2023-12-20T03:30:54;9.67;;;4.67;;
50968;SDS011;36982;51.474;7.228;2023-12-20T03:33:20;13.03;;;4.67;;
50968;SDS011;36982;51.474;7.228;2023-12-20T03:35:45;9.17;;;4.60;;
50968;SDS011;36982;51.474;7.228;2023-12-20T03:38:11;8.47;;;4.30;;
50968;SDS011;36982;51.474;7.228;2023-12-20T03:40:37;12.30;;;4.47;;
50968;SDS011;36982;51.474;7.228;2023-12-20T03:43:03;7.10;;;3.83;;
50968;SDS011;36982;51.474;7.228;2023-12-20T03:45:28;12.60;;;3.97;;
50968;SDS011;36982;51.474;7.228;2023-12-20T03:47:54;14.90;;;5.17;;
50968;SDS011;36982;51.474;7.228;2023-12-20T03:50:24;6.53;;;3.63;;
50968;SDS011;36982;51.474;7.228;2023-12-20T03:52:50;9.13;;;3.90;;
50968;SDS011;36982;51.474;7.228;2023-12-20T03:55:16;9.73;;;3.70;;
50968;SDS011;36982;51.474;7.228;2023-12-20T03:57:41;9.37;;;3.70;;
50968;SDS011;36982;51.474;7.228;2023-12-20T04:00:07;10.37;;;3.50;;
50968;SDS011;36982;51.474;7.228;2023-12-20T04:02:39;8.83;;;3.43;;
50968;SDS011;36982;51.474;7.228;2023-12-20T04:05:06;5.90;;;3.10;;
50968;SDS011;36982;51.474;7.228;2023-12-20T04:07:32;14.63;;;4.43;;
50968;SDS011;36982;51.474;7.228;2023-12-20T04:09:57;9.20;;;3.13;;
50968;SDS011;36982;51.474;7.228;2023-12-20T04:12:23;9.87;;;3.53;;
50968;SDS011;36982;51.474;7.228;2023-12-20T04:14:49;9.33;;;3.10;;
50968;SDS011;36982;51.474;7.228;2023-12-20T04:17:15;10.57;;;3.10;;
50968;SDS011;36982;51.474;7.228;2023-12-20T04:19:44;12.40;;;3.40;;
50968;SDS011;36982;51.474;7.228;2023-12-20T04:22:09;8.67;;;2.87;;
50968;SDS011;36982;51.474;7.228;2023-12-20T04:24:35;11.37;;;3.30;;
50968;SDS011;36982;51.474;7.228;2023-12-20T04:27:01;10.27;;;2.97;;
50968;SDS011;36982;51.474;7.228;2023-12-20T04:29:26;11.70;;;2.90;;
50968;SDS011;36982;51.474;7.228;2023-12-20T04:31:52;9.30;;;2.90;;
50968;SDS011;36982;51.474;7.228;2023-12-20T04:34:18;6.23;;;2.47;;
50968;SDS011;36982;51.474;7.228;2023-12-20T04:36:43;9.90;;;3.57;;
50968;SDS011;36982;51.474;7.228;2023-12-20T04:39:09;10.93;;;3.00;;
50968;SDS011;36982;51.474;7.228;2023-12-20T04:41:36;10.27;;;3.13;;
50968;SDS011;36982;51.474;7.228;2023-12-20T04:44:01;13.53;;;3.00;;
50968;SDS011;36982;51.474;7.228;2023-12-20T04:46:27;12.70;;;3.27;;
50968;SDS011;36982;51.474;7.228;2023-12-20T04:48:53;9.87;;;3.30;;
50968;SDS011;36982;51.474;7.228;2023-12-20T04:51:18;14.93;;;3.37;;
50968;SDS011;36982;51.474;7.228;2023-12-20T04:53:44;10.20;;;3.70;;
50968;SDS011;36982;51.474;7.228;2023-12-20T04:56:09;12.37;;;4.50;;
50968;SDS011;36982;51.474;7.228;2023-12-20T04:58:35;12.77;;;3.90;;
50968;SDS011;36982;51.474;7.228;2023-12-20T05:01:00;8.97;;;3.90;;
50968;SDS011;36982;51.474;7.228;2023-12-20T05:03:26;12.80;;;3.80;;
50968;SDS011;36982;51.474;7.228;2023-12-20T05:05:51;11.17;;;3.73;;
50968;SDS011;36982;51.474;7.228;2023-12-20T05:08:17;15.33;;;4.17;;
50968;SDS011;36982;51.474;7.228;2023-12-20T05:10:43;8.70;;;3.27;;
50968;SDS011;36982;51.474;7.228;2023-12-20T05:13:08;8.57;;;3.97;;
50968;SDS011;36982;51.474;7.228;2023-12-20T05:15:34;20.30;;;4.53;;
50968;SDS011;36982;51.474;7.228;2023-12-20T05:17:59;11.17;;;3.53;;
50968;SDS011;36982;51.474;7.228;2023-12-20T05:20:25;8.67;;;3.53;;
50968;SDS011;36982;51.474;7.228;2023-12-20T05:22:51;10.77;;;4.53;;
50968;SDS011;36982;51.474;7.228;2023-12-20T05:25:16;9.67;;;3.90;;
50968;SDS011;36982;51.474;7.228;2023-12-20T05:27:42;11.70;;;3.73;;
50968;SDS011;36982;51.474;7.228;2023-12-20T05:30:07;13.90;;;3.90;;
50968;SDS011;36982;51.474;7.228;2023-12-20T05:32:33;9.40;;;3.33;;
50968;SDS011;36982;51.474;7.228;2023-12-20T05:34:59;11.83;;;4.13;;
50968;SDS011;36982;51.474;7.228;2023-12-20T05:37:25;14.30;;;3.40;;
50968;SDS011;36982;51.474;7.228;2023-12-20T05:39:50;14.03;;;3.57;;
50968;SDS011;36982;51.474;7.228;2023-12-20T05:42:16;12.13;;;3.43;;
50968;SDS011;36982;51.474;7.228;2023-12-20T05:44:41;10.00;;;3.17;;
50968;SDS011;36982;51.474;7.228;2023-12-20T05:47:07;13.83;;;3.97;;
50968;SDS011;36982;51.474;7.228;2023-12-20T05:49:32;11.83;;;3.90;;
50968;SDS011;36982;51.474;7.228;2023-12-20T05:51:58;9.90;;;3.77;;
50968;SDS011;36982;51.474;7.228;2023-12-20T05:54:24;10.67;;;3.97;;
50968;SDS011;36982;51.474;7.228;2023-12-20T05:56:49;11.10;;;4.17;;
50968;SDS011;36982;51.474;7.228;2023-12-20T05:59:15;16.27;;;5.00;;
50968;SDS011;36982;51.474;7.228;2023-12-20T06:01:41;12.37;;;5.00;;
50968;SDS011;36982;51.474;7.228;2023-12-20T06:04:07;13.23;;;4.93;;
50968;SDS011;36982;51.474;7.228;2023-12-20T06:06:32;13.33;;;4.57;;
50968;SDS011;36982;51.474;7.228;2023-12-20T06:08:58;10.93;;;5.33;;
50968;SDS011;36982;51.474;7.228;2023-12-20T06:11:23;10.77;;;5.10;;
50968;SDS011;36982;51.474;7.228;2023-12-20T06:13:49;14.30;;;5.03;;
50968;SDS011;36982;51.474;7.228;2023-12-20T06:16:17;18.47;;;5.73;;
50968;SDS011;36982;51.474;7.228;2023-12-20T06:18:43;10.47;;;5.00;;
50968;SDS011;36982;51.474;7.228;2023-12-20T06:21:08;11.37;;;5.57;;
50968;SDS011;36982;51.474;7.228;2023-12-20T06:23:37;13.67;;;5.00;;
50968;SDS011;36982;51.474;7.228;2023-12-20T06:26:03;11.80;;;5.00;;
50968;SDS011;36982;51.474;7.228;2023-12-20T06:28:29;14.23;;;5.20;;
50968;SDS011;36982;51.474;7.228;2023-12-20T06:30:55;12.33;;;5.53;;
50968;SDS011;36982;51.474;7.228;2023-12-20T06:33:22;9.93;;;4.50;;
50968;SDS011;36982;51.474;7.228;2023-12-20T06:35:48;13.33;;;5.43;;
50968;SDS011;36982;51.474;7.228;2023-12-20T06:38:13;13.93;;;6.03;;
50968;SDS011;36982;51.474;7.228;2023-12-20T06:40:39;12.73;;;5.37;;
50968;SDS011;36982;51.474;7.228;2023-12-20T06:43:05;15.57;;;5.33;;
50968;SDS011;36982;51.474;7.228;2023-12-20T06:45:32;8.43;;;4.37;;
50968;SDS011;36982;51.474;7.228;2023-12-20T06:47:57;11.87;;;5.47;;
50968;SDS011;36982;51.474;7.228;2023-12-20T06:50:23;16.10;;;5.67;;
50968;SDS011;36982;51.474;7.228;2023-12-20T06:52:49;13.90;;;4.90;;
50968;SDS011;36982;51.474;7.228;2023-12-20T06:55:14;15.63;;;5.83;;
50968;SDS011;36982;51.474;7.228;2023-12-20T06:57:40;12.63;;;4.87;;
50968;SDS011;36982;51.474;7.228;2023-12-20T07:00:06;18.37;;;5.03;;
50968;SDS011;36982;51.474;7.228;2023-12-20T07:02:33;14.77;;;5.27;;
50968;SDS011;36982;51.474;7.228;2023-12-20T07:04:59;9.87;;;5.17;;
50968;SDS011;36982;51.474;7.228;2023-12-20T07:07:25;12.87;;;5.33;;
50968;SDS011;36982;51.474;7.228;2023-12-20T07:09:51;8.63;;;5.33;;
50968;SDS011;36982;51.474;7.228;2023-12-20T07:12:16;12.37;;;5.20;;
50968;SDS011;36982;51.474;7.228;2023-12-20T07:14:44;11.13;;;5.40;;
50968;SDS011;36982;51.474;7.228;2023-12-20T07:17:10;10.43;;;5.10;;
50968;SDS011;36982;51.474;7.228;2023-12-20T07:19:38;11.63;;;4.57;;
50968;SDS011;36982;51.474;7.228;2023-12-20T07:22:05;9.57;;;5.03;;
50968;SDS011;36982;51.474;7.228;2023-12-20T07:24:31;11.20;;;4.57;;
50968;SDS011;36982;51.474;7.228;2023-12-20T07:26:57;11.33;;;4.20;;
50968;SDS011;36982;51.474;7.228;2023-12-20T07:29:24;10.07;;;5.17;;
50968;SDS011;36982;51.474;7.228;2023-12-20T07:31:50;17.33;;;5.50;;
50968;SDS011;36982;51.474;7.228;2023-12-20T07:34:17;8.77;;;4.57;;
50968;SDS011;36982;51.474;7.228;2023-12-20T07:36:43;8.70;;;4.37;;
50968;SDS011;36982;51.474;7.228;2023-12-20T07:39:08;15.00;;;4.20;;
50968;SDS011;36982;51.474;7.228;2023-12-20T07:41:34;15.20;;;4.83;;
50968;SDS011;36982;51.474;7.228;2023-12-20T07:43:59;10.20;;;3.97;;
50968;SDS011;36982;51.474;7.228;2023-12-20T07:46:25;11.80;;;4.57;;
50968;SDS011;36982;51.474;7.228;2023-12-20T07:48:50;10.10;;;4.47;;
50968;SDS011;36982;51.474;7.228;2023-12-20T07:51:16;16.23;;;5.97;;
50968;SDS011;36982;51.474;7.228;2023-12-20T07:53:42;13.73;;;4.90;;
50968;SDS011;36982;51.474;7.228;2023-12-20T07:56:17;12.80;;;4.57;;
50968;SDS011;36982;51.474;7.228;2023-12-20T07:58:45;8.60;;;4.07;;
50968;SDS011;36982;51.474;7.228;2023-12-20T08:01:11;12.93;;;4.37;;
50968;SDS011;36982;51.474;7.228;2023-12-20T08:03:37;13.50;;;4.80;;
50968;SDS011;36982;51.474;7.228;2023-12-20T08:06:03;11.17;;;4.73;;
50968;SDS011;36982;51.474;7.228;2023-12-20T08:08:29;11.43;;;4.30;;
50968;SDS011;36982;51.474;7.228;2023-12-20T08:10:55;11.93;;;3.90;;
50968;SDS011;36982;51.474;7.228;2023-12-20T08:13:22;10.73;;;4.03;;
50968;SDS011;36982;51.474;7.228;2023-12-20T08:15:51;12.47;;;5.00;;
50968;SDS011;36982;51.474;7.228;2023-12-20T08:18:16;12.23;;;4.13;;
50968;SDS011;36982;51.474;7.228;2023-12-20T08:20:42;12.47;;;4.23;;
50968;SDS011;36982;51.474;7.228;2023-12-20T08:23:08;12.03;;;3.90;;
50968;SDS011;36982;51.474;7.228;2023-12-20T08:25:33;9.80;;;3.90;;
50968;SDS011;36982;51.474;7.228;2023-12-20T08:27:59;10.43;;;4.23;;
50968;SDS011;36982;51.474;7.228;2023-12-20T08:30:25;10.77;;;3.87;;
50968;SDS011;36982;51.474;7.228;2023-12-20T08:32:51;12.80;;;3.80;;
50968;SDS011;36982;51.474;7.228;2023-12-20T08:35:17;14.53;;;4.27;;
50968;SDS011;36982;51.474;7.228;2023-12-20T08:37:43;11.40;;;4.13;;
50968;SDS011;36982;51.474;7.228;2023-12-20T08:40:09;9.93;;;3.63;;
50968;SDS011;36982;51.474;7.228;2023-12-20T08:42:35;8.03;;;3.67;;
50968;SDS011;36982;51.474;7.228;2023-12-20T08:45:01;10.90;;;3.93;;
50968;SDS011;36982;51.474;7.228;2023-12-20T08:47:28;12.20;;;3.90;;
50968;SDS011;36982;51.474;7.228;2023-12-20T08:49:54;12.47;;;4.00;;
50968;SDS011;36982;51.474;7.228;2023-12-20T08:52:22;12.47;;;4.07;;
50968;SDS011;36982;51.474;7.228;2023-12-20T08:54:48;12.93;;;3.60;;
50968;SDS011;36982;51.474;7.228;2023-12-20T08:57:16;8.47;;;3.20;;
50968;SDS011;36982;51.474;7.228;2023-12-20T08:59:43;6.60;;;3.20;;
50968;SDS011;36982;51.474;7.228;2023-12-20T09:02:09;10.67;;;3.93;;
50968;SDS011;36982;51.474;7.228;2023-12-20T09:04:35;11.10;;;3.83;;
50968;SDS011;36982;51.474;7.228;2023-12-20T09:07:00;12.43;;;3.60;;
50968;SDS011;36982;51.474;7.228;2023-12-20T09:09:26;12.77;;;3.40;;
50968;SDS011;36982;51.474;7.228;2023-12-20T09:11:52;8.47;;;3.70;;
50968;SDS011;36982;51.474;7.228;2023-12-20T09:14:17;10.00;;;3.70;;
50968;SDS011;36982;51.474;7.228;2023-12-20T09:16:51;10.87;;;3.67;;
50968;SDS011;36982;51.474;7.228;2023-12-20T09:19:17;10.20;;;3.93;;
50968;SDS011;36982;51.474;7.228;2023-12-20T09:21:43;6.17;;;2.50;;
50968;SDS011;36982;51.474;7.228;2023-12-20T09:24:09;11.80;;;3.30;;
50968;SDS011;36982;51.474;7.228;2023-12-20T09:26:34;10.63;;;2.87;;
50968;SDS011;36982;51.474;7.228;2023-12-20T09:29:00;7.73;;;2.93;;
50968;SDS011;36982;51.474;7.228;2023-12-20T09:31:25;10.03;;;2.80;;
50968;SDS011;36982;51.474;7.228;2023-12-20T09:33:51;9.23;;;2.67;;
50968;SDS011;36982;51.474;7.228;2023-12-20T09:36:17;5.90;;;2.80;;
50968;SDS011;36982;51.474;7.228;2023-12-20T09:38:43;7.23;;;3.00;;
50968;SDS011;36982;51.474;7.228;2023-12-20T09:41:08;7.87;;;2.73;;
50968;SDS011;36982;51.474;7.228;2023-12-20T09:43:35;12.67;;;3.17;;
50968;SDS011;36982;51.474;7.228;2023-12-20T09:46:02;9.53;;;3.20;;
50968;SDS011;36982;51.474;7.228;2023-12-20T09:48:30;11.40;;;2.80;;
50968;SDS011;36982;51.474;7.228;2023-12-20T09:50:57;12.80;;;3.50;;
50968;SDS011;36982;51.474;7.228;2023-12-20T09:53:23;8.67;;;2.47;;
50968;SDS011;36982;51.474;7.228;2023-12-20T09:55:55;8.40;;;3.27;;
50968;SDS011;36982;51.474;7.228;2023-12-20T09:58:24;8.23;;;2.60;;
50968;SDS011;36982;51.474;7.228;2023-12-20T10:00:49;9.17;;;3.00;;
50968;SDS011;36982;51.474;7.228;2023-12-20T10:03:16;9.43;;;3.03;;
50968;SDS011;36982;51.474;7.228;2023-12-20T10:05:45;5.10;;;2.60;;
50968;SDS011;36982;51.474;7.228;2023-12-20T10:08:14;7.47;;;2.87;;
50968;SDS011;36982;51.474;7.228;2023-12-20T10:10:39;7.67;;;2.97;;
50968;SDS011;36982;51.474;7.228;2023-12-20T10:13:06;12.67;;;3.80;;
50968;SDS011;36982;51.474;7.228;2023-12-20T10:15:36;4.73;;;1.27;;
50968;SDS011;36982;51.474;7.228;2023-12-20T10:18:02;12.80;;;3.77;;
50968;SDS011;36982;51.474;7.228;2023-12-20T10:20:29;11.80;;;2.90;;
50968;SDS011;36982;51.474;7.228;2023-12-20T10:22:55;8.90;;;3.10;;
50968;SDS011;36982;51.474;7.228;2023-12-20T10:25:22;11.30;;;2.80;;
50968;SDS011;36982;51.474;7.228;2023-12-20T10:27:49;10.10;;;3.10;;
50968;SDS011;36982;51.474;7.228;2023-12-20T10:30:15;7.87;;;3.20;;
50968;SDS011;36982;51.474;7.228;2023-12-20T10:32:41;9.63;;;2.90;;
50968;SDS011;36982;51.474;7.228;2023-12-20T10:35:07;10.60;;;3.10;;
50968;SDS011;36982;51.474;7.228;2023-12-20T10:37:37;9.20;;;3.57;;
50968;SDS011;36982;51.474;7.228;2023-12-20T10:40:03;10.30;;;3.07;;
50968;SDS011;36982;51.474;7.228;2023-12-20T10:42:31;10.70;;;3.17;;
50968;SDS011;36982;51.474;7.228;2023-12-20T10:44:59;9.40;;;2.80;;
50968;SDS011;36982;51.474;7.228;2023-12-20T10:47:25;10.67;;;3.00;;
50968;SDS011;36982;51.474;7.228;2023-12-20T10:49:54;10.10;;;3.50;;
50968;SDS011;36982;51.474;7.228;2023-12-20T10:52:20;10.00;;;3.10;;
50968;SDS011;36982;51.474;7.228;2023-12-20T10:54:49;9.30;;;3.47;;
50968;SDS011;36982;51.474;7.228;2023-12-20T10:57:14;9.83;;;3.10;;
50968;SDS011;36982;51.474;7.228;2023-12-20T10:59:43;11.17;;;3.00;;
50968;SDS011;36982;51.474;7.228;2023-12-20T11:02:12;12.47;;;2.90;;
50968;SDS011;36982;51.474;7.228;2023-12-20T11:04:40;10.70;;;3.27;;
50968;SDS011;36982;51.474;7.228;2023-12-20T11:15:41;7.00;;;2.93;;
50968;SDS011;36982;51.474;7.228;2023-12-20T11:18:07;8.40;;;2.97;;
50968;SDS011;36982;51.474;7.228;2023-12-20T11:20:38;8.30;;;3.40;;
50968;SDS011;36982;51.474;7.228;2023-12-20T11:23:06;4.10;;;2.20;;
50968;SDS011;36982;51.474;7.228;2023-12-20T11:28:33;7.73;;;3.50;;
50968;SDS011;36982;51.474;7.228;2023-12-20T11:31:00;7.50;;;3.20;;
50968;SDS011;36982;51.474;7.228;2023-12-20T11:33:30;9.20;;;3.20;;
50968;SDS011;36982;51.474;7.228;2023-12-20T11:36:12;12.03;;;3.43;;
50968;SDS011;36982;51.474;7.228;2023-12-20T11:38:49;8.90;;;2.93;;
50968;SDS011;36982;51.474;7.228;2023-12-20T11:41:22;10.00;;;3.60;;
50968;SDS011;36982;51.474;7.228;2023-12-20T11:43:49;9.97;;;3.03;;
50968;SDS011;36982;51.474;7.228;2023-12-20T11:46:18;9.13;;;3.53;;
50968;SDS011;36982;51.474;7.228;2023-12-20T11:48:44;12.17;;;3.60;;
50968;SDS011;36982;51.474;7.228;2023-12-20T11:51:10;10.53;;;3.30;;
50968;SDS011;36982;51.474;7.228;2023-12-20T11:53:36;13.37;;;3.53;;
50968;SDS011;36982;51.474;7.228;2023-12-20T11:56:03;11.60;;;3.00;;
50968;SDS011;36982;51.474;7.228;2023-12-20T11:58:30;11.77;;;3.50;;
50968;SDS011;36982;51.474;7.228;2023-12-20T12:00:56;6.13;;;2.90;;
50968;SDS011;36982;51.474;7.228;2023-12-20T12:03:22;10.10;;;3.40;;
50968;SDS011;36982;51.474;7.228;2023-12-20T12:05:48;10.20;;;3.47;;
50968;SDS011;36982;51.474;7.228;2023-12-20T12:08:14;11.80;;;3.63;;
50968;SDS011;36982;51.474;7.228;2023-12-20T12:10:40;9.43;;;3.57;;
50968;SDS011;36982;51.474;7.228;2023-12-20T12:13:06;10.13;;;3.80;;
50968;SDS011;36982;51.474;7.228;2023-12-20T12:15:41;10.90;;;4.20;;
50968;SDS011;36982;51.474;7.228;2023-12-20T12:18:07;12.30;;;3.97;;
50968;SDS011;36982;51.474;7.228;2023-12-20T12:20:33;10.13;;;3.70;;
50968;SDS011;36982;51.474;7.228;2023-12-20T12:23:00;14.57;;;4.50;;
50968;SDS011;36982;51.474;7.228;2023-12-20T12:25:26;6.83;;;4.00;;
50968;SDS011;36982;51.474;7.228;2023-12-20T12:27:55;7.00;;;4.07;;
50968;SDS011;36982;51.474;7.228;2023-12-20T12:30:21;14.07;;;4.30;;
50968;SDS011;36982;51.474;7.228;2023-12-20T12:32:47;9.47;;;4.00;;
50968;SDS011;36982;51.474;7.228;2023-12-20T12:35:13;9.23;;;3.67;;
50968;SDS011;36982;51.474;7.228;2023-12-20T12:37:39;10.47;;;4.03;;
50968;SDS011;36982;51.474;7.228;2023-12-20T12:40:09;10.10;;;4.40;;
50968;SDS011;36982;51.474;7.228;2023-12-20T12:42:36;8.37;;;3.00;;
50968;SDS011;36982;51.474;7.228;2023-12-20T12:45:02;16.47;;;4.30;;
50968;SDS011;36982;51.474;7.228;2023-12-20T12:47:29;15.17;;;4.70;;
50968;SDS011;36982;51.474;7.228;2023-12-20T12:49:55;9.90;;;4.37;;
50968;SDS011;36982;51.474;7.228;2023-12-20T12:52:21;10.83;;;4.57;;
50968;SDS011;36982;51.474;7.228;2023-12-20T12:54:47;10.37;;;3.60;;
50968;SDS011;36982;51.474;7.228;2023-12-20T12:57:13;11.33;;;4.63;;
50968;SDS011;36982;51.474;7.228;2023-12-20T12:59:41;10.70;;;4.13;;
50968;SDS011;36982;51.474;7.228;2023-12-20T13:02:11;12.40;;;4.20;;
50968;SDS011;36982;51.474;7.228;2023-12-20T13:04:40;8.80;;;3.40;;
50968;SDS011;36982;51.474;7.228;2023-12-20T13:07:06;12.30;;;4.37;;
50968;SDS011;36982;51.474;7.228;2023-12-20T13:09:36;10.93;;;4.83;;
50968;SDS011;36982;51.474;7.228;2023-12-20T13:12:02;14.40;;;4.60;;
50968;SDS011;36982;51.474;7.228;2023-12-20T13:14:29;15.17;;;4.57;;
50968;SDS011;36982;51.474;7.228;2023-12-20T13:16:56;11.13;;;4.60;;
50968;SDS011;36982;51.474;7.228;2023-12-20T13:19:23;10.07;;;3.90;;
50968;SDS011;36982;51.474;7.228;2023-12-20T13:21:48;10.23;;;4.90;;
50968;SDS011;36982;51.474;7.228;2023-12-20T13:24:14;9.77;;;4.83;;
50968;SDS011;36982;51.474;7.228;2023-12-20T13:26:39;8.90;;;4.37;;
50968;SDS011;36982;51.474;7.228;2023-12-20T13:29:05;12.10;;;4.60;;
50968;SDS011;36982;51.474;7.228;2023-12-20T13:31:30;8.50;;;4.70;;
50968;SDS011;36982;51.474;7.228;2023-12-20T13:33:56;10.53;;;4.47;;
50968;SDS011;36982;51.474;7.228;2023-12-20T13:36:21;10.53;;;4.57;;
50968;SDS011;36982;51.474;7.228;2023-12-20T13:38:47;14.20;;;4.90;;
50968;SDS011;36982;51.474;7.228;2023-12-20T13:41:13;9.30;;;4.37;;
50968;SDS011;36982;51.474;7.228;2023-12-20T13:43:39;12.77;;;4.90;;
50968;SDS011;36982;51.474;7.228;2023-12-20T13:46:04;12.03;;;4.60;;
50968;SDS011;36982;51.474;7.228;2023-12-20T13:48:30;11.60;;;4.63;;
50968;SDS011;36982;51.474;7.228;2023-12-20T13:50:56;9.80;;;4.80;;
50968;SDS011;36982;51.474;7.228;2023-12-20T13:53:21;8.77;;;4.90;;
50968;SDS011;36982;51.474;7.228;2023-12-20T13:55:47;8.60;;;4.20;;
50968;SDS011;36982;51.474;7.228;2023-12-20T13:58:13;11.37;;;4.53;;
50968;SDS011;36982;51.474;7.228;2023-12-20T14:00:38;9.83;;;4.30;;
50968;SDS011;36982;51.474;7.228;2023-12-20T14:03:05;8.43;;;4.20;;
50968;SDS011;36982;51.474;7.228;2023-12-20T14:05:30;12.50;;;4.63;;
50968;SDS011;36982;51.474;7.228;2023-12-20T14:07:56;9.83;;;4.80;;
50968;SDS011;36982;51.474;7.228;2023-12-20T14:10:22;10.40;;;4.67;;
50968;SDS011;36982;51.474;7.228;2023-12-20T14:12:51;9.10;;;4.53;;
50968;SDS011;36982;51.474;7.228;2023-12-20T14:15:17;11.70;;;5.53;;
50968;SDS011;36982;51.474;7.228;2023-12-20T14:17:43;9.33;;;4.83;;
50968;SDS011;36982;51.474;7.228;2023-12-20T14:20:08;10.90;;;5.40;;
50968;SDS011;36982;51.474;7.228;2023-12-20T14:22:34;8.30;;;5.20;;
50968;SDS011;36982;51.474;7.228;2023-12-20T14:25:00;10.10;;;5.37;;
50968;SDS011;36982;51.474;7.228;2023-12-20T14:27:26;13.80;;;5.90;;
50968;SDS011;36982;51.474;7.228;2023-12-20T14:29:55;7.53;;;4.63;;
50968;SDS011;36982;51.474;7.228;2023-12-20T14:32:21;10.90;;;4.70;;
50968;SDS011;36982;51.474;7.228;2023-12-20T14:34:47;10.77;;;4.70;;
50968;SDS011;36982;51.474;7.228;2023-12-20T14:37:13;8.07;;;4.47;;
50968;SDS011;36982;51.474;7.228;2023-12-20T14:39:39;10.83;;;4.77;;
50968;SDS011;36982;51.474;7.228;2023-12-20T14:42:06;8.77;;;4.00;;
50968;SDS011;36982;51.474;7.228;2023-12-20T14:44:36;7.80;;;4.47;;